createdAt,value
2017-11-17T00:00:15.879Z,0.56
2017-11-17T00:01:15.867Z,0.6
2017-11-17T00:02:15.566Z,0.48
2017-11-17T00:03:15.823Z,0.48
2017-11-17T00:04:15.534Z,0.47
2017-11-17T00:05:15.796Z,0.52
2017-11-17T00:06:15.771Z,0.45
2017-11-17T00:07:15.759Z,0.48
2017-11-17T00:08:15.464Z,0.41
2017-11-17T00:09:15.451Z,0.45
2017-11-17T00:10:15.429Z,0.41
2017-11-17T00:11:15.413Z,0.34
2017-11-17T00:12:15.669Z,0.41
2017-11-17T00:13:15.383Z,0.41
2017-11-17T00:14:15.636Z,0.38
2017-11-17T00:15:15.345Z,0.28
2017-11-17T00:16:15.335Z,0.31
2017-11-17T00:17:15.311Z,0.21
2017-11-17T00:18:15.297Z,0.23
2017-11-17T00:19:15.278Z,0.28
2017-11-17T00:20:15.548Z,0.26
2017-11-17T00:21:15.240Z,0.31
2017-11-17T00:22:15.495Z,0.23
2017-11-17T00:23:15.479Z,0.35
2017-11-17T00:24:15.460Z,0.35
2017-11-17T00:25:15.447Z,0.28
2017-11-17T00:26:15.428Z,0.37
2017-11-17T00:27:15.413Z,0.28
2017-11-17T00:28:15.394Z,0.27
2017-11-17T00:29:15.658Z,0.31
2017-11-17T00:30:15.081Z,0.37
2017-11-17T00:31:15.363Z,0.32
2017-11-17T00:32:15.322Z,0.38
2017-11-17T00:33:15.307Z,0.28
2017-11-17T00:34:15.583Z,0.38
2017-11-17T00:35:14.993Z,0.44
2017-11-17T00:36:15.252Z,0.35
2017-11-17T00:37:15.510Z,0.38
2017-11-17T00:38:15.233Z,0.37
2017-11-17T00:39:15.479Z,0.42
2017-11-17T00:40:14.907Z,0.56
2017-11-17T00:41:15.164Z,0.5
2017-11-17T00:42:15.156Z,0.56
2017-11-17T00:43:15.462Z,0.63
2017-11-17T00:44:14.838Z,0.67
2017-11-17T00:45:15.104Z,0.64
2017-11-17T00:46:15.088Z,0.78
2017-11-17T00:47:14.828Z,0.72
2017-11-17T00:48:14.767Z,0.81
2017-11-17T00:49:15.027Z,0.82
2017-11-17T00:50:15.009Z,0.92
2017-11-17T00:51:14.725Z,0.94
2017-11-17T00:52:14.703Z,0.96
2017-11-17T00:53:14.682Z,0.94
2017-11-17T00:54:15.230Z,0.94
2017-11-17T00:55:14.924Z,0.96
2017-11-17T00:56:14.915Z,0.94
2017-11-17T00:57:14.888Z,0.93
2017-11-17T00:58:14.594Z,1.02
2017-11-17T00:59:14.578Z,1.1
2017-11-17T01:00:14.855Z,1.04
2017-11-17T01:01:14.544Z,1.11
2017-11-17T01:02:14.799Z,1.08
2017-11-17T01:03:14.509Z,1.08
2017-11-17T01:04:14.771Z,1.11
2017-11-17T01:05:14.471Z,1.11
2017-11-17T01:06:14.475Z,1.11
2017-11-17T01:07:14.716Z,1.17
2017-11-17T01:08:14.442Z,1.18
2017-11-17T01:09:14.952Z,1.14
2017-11-17T01:10:14.665Z,1.17
2017-11-17T01:11:14.371Z,1.22
2017-11-17T01:12:14.903Z,1.18
2017-11-17T01:13:14.614Z,1.18
2017-11-17T01:14:14.593Z,1.28
2017-11-17T01:15:14.577Z,1.18
2017-11-17T01:16:14.300Z,1.29
2017-11-17T01:17:14.838Z,1.28
2017-11-17T01:18:14.453Z,1.24
2017-11-17T01:19:14.236Z,1.26
2017-11-17T01:20:14.517Z,1.22
2017-11-17T01:21:14.488Z,1.32
2017-11-17T01:22:14.183Z,1.32
2017-11-17T01:23:14.165Z,1.22
2017-11-17T01:24:14.444Z,1.4
2017-11-17T01:25:14.691Z,1.39
2017-11-17T01:26:14.699Z,1.38
2017-11-17T01:27:14.096Z,1.36
2017-11-17T01:28:14.099Z,1.38
2017-11-17T01:29:14.339Z,1.5
2017-11-17T01:30:14.326Z,1.51
2017-11-17T01:31:14.324Z,1.4
2017-11-17T01:32:14.023Z,1.53
2017-11-17T01:33:14.563Z,1.46
2017-11-17T01:34:14.271Z,1.54
2017-11-17T01:35:13.967Z,1.47
2017-11-17T01:36:14.216Z,1.53
2017-11-17T01:37:13.924Z,1.58
2017-11-17T01:38:13.909Z,1.53
2017-11-17T01:39:13.889Z,1.53
2017-11-17T01:40:13.878Z,1.51
2017-11-17T01:41:14.141Z,1.6
2017-11-17T01:42:14.116Z,1.58
2017-11-17T01:43:14.100Z,1.65
2017-11-17T01:44:14.388Z,1.68
2017-11-17T01:45:14.340Z,1.71
2017-11-17T01:46:14.055Z,1.66
2017-11-17T01:47:14.033Z,1.61
2017-11-17T01:48:14.013Z,1.66
2017-11-17T01:49:13.998Z,1.65
2017-11-17T01:50:13.705Z,1.66
2017-11-17T01:51:13.970Z,1.74
2017-11-17T01:52:13.946Z,1.68
2017-11-17T01:53:14.216Z,1.71
2017-11-17T01:54:13.637Z,1.78
2017-11-17T01:55:13.912Z,1.76
2017-11-17T01:56:14.159Z,1.69
2017-11-17T01:57:13.865Z,1.71
2017-11-17T01:58:13.848Z,1.76
2017-11-17T01:59:13.555Z,1.84
2017-11-17T02:00:13.813Z,1.86
2017-11-17T02:01:13.844Z,1.84
2017-11-17T02:02:13.780Z,1.84
2017-11-17T02:03:13.486Z,1.86
2017-11-17T02:04:13.497Z,1.9
2017-11-17T02:05:13.452Z,1.9
2017-11-17T02:06:13.716Z,1.92
2017-11-17T02:07:13.707Z,1.94
2017-11-17T02:08:13.408Z,1.93
2017-11-17T02:09:13.944Z,1.97
2017-11-17T02:10:13.648Z,1.93
2017-11-17T02:11:20.229Z,1.98
2017-11-17T02:12:13.615Z,2.06
2017-11-17T02:13:13.346Z,2.04
2017-11-17T02:14:13.312Z,2.08
2017-11-17T02:15:13.288Z,1.98
2017-11-17T02:16:13.268Z,2.11
2017-11-17T02:17:13.830Z,2.11
2017-11-17T02:18:13.235Z,2.05
2017-11-17T02:19:13.218Z,2.12
2017-11-17T02:20:13.489Z,2.08
2017-11-17T02:21:13.477Z,2.02
2017-11-17T02:22:13.182Z,2.05
2017-11-17T02:23:13.161Z,2.08
2017-11-17T02:24:13.424Z,2.12
2017-11-17T02:25:13.406Z,2.12
2017-11-17T02:26:13.388Z,2.06
2017-11-17T02:27:13.094Z,2.12
2017-11-17T02:28:13.095Z,2.08
2017-11-17T02:29:13.347Z,2.11
2017-11-17T02:30:13.608Z,2.09
2017-11-17T02:31:13.303Z,2.16
2017-11-17T02:32:13.303Z,2.15
2017-11-17T02:33:13.273Z,2.22
2017-11-17T02:34:12.978Z,2.22
2017-11-17T02:35:13.516Z,2.22
2017-11-17T02:36:12.942Z,2.2
2017-11-17T02:37:13.498Z,2.18
2017-11-17T02:38:12.912Z,2.16
2017-11-17T02:39:13.192Z,2.2
2017-11-17T02:40:12.885Z,2.2
2017-11-17T02:41:13.141Z,2.16
2017-11-17T02:42:12.841Z,2.3
2017-11-17T02:43:12.829Z,2.29
2017-11-17T02:44:13.124Z,2.24
2017-11-17T02:45:13.563Z,2.29
2017-11-17T02:46:13.053Z,2.18
2017-11-17T02:47:13.317Z,2.26
2017-11-17T02:48:13.032Z,2.22
2017-11-17T02:49:12.747Z,2.23
2017-11-17T02:50:12.998Z,2.22
2017-11-17T02:51:12.693Z,2.27
2017-11-17T02:52:12.677Z,2.29
2017-11-17T02:53:12.973Z,2.31
2017-11-17T02:54:12.647Z,2.27
2017-11-17T02:55:12.907Z,2.3
2017-11-17T02:56:12.624Z,2.31
2017-11-17T02:57:12.598Z,2.3
2017-11-17T02:58:12.858Z,2.31
2017-11-17T02:59:13.125Z,2.34
2017-11-17T03:00:12.829Z,2.36
2017-11-17T03:01:12.824Z,2.33
2017-11-17T03:02:12.512Z,2.45
2017-11-17T03:03:12.524Z,2.45
2017-11-17T03:04:12.773Z,2.47
2017-11-17T03:05:12.750Z,2.45
2017-11-17T03:06:12.723Z,2.47
2017-11-17T03:07:12.431Z,2.41
2017-11-17T03:08:12.968Z,2.4
2017-11-17T03:09:12.396Z,2.45
2017-11-17T03:10:12.657Z,2.48
2017-11-17T03:11:12.366Z,2.49
2017-11-17T03:12:12.919Z,2.55
2017-11-17T03:13:12.616Z,2.45
2017-11-17T03:14:12.877Z,2.52
2017-11-17T03:15:12.576Z,2.58
2017-11-17T03:16:12.879Z,2.58
2017-11-17T03:17:12.267Z,2.54
2017-11-17T03:18:12.833Z,2.58
2017-11-17T03:19:12.522Z,2.59
2017-11-17T03:20:12.233Z,2.62
2017-11-17T03:21:12.755Z,2.55
2017-11-17T03:22:12.190Z,2.65
2017-11-17T03:23:12.452Z,2.58
2017-11-17T03:24:12.438Z,2.55
2017-11-17T03:25:12.202Z,2.62
2017-11-17T03:26:12.697Z,2.6
2017-11-17T03:27:12.377Z,2.54
2017-11-17T03:28:12.739Z,2.59
2017-11-17T03:29:12.086Z,2.6
2017-11-17T03:30:12.339Z,2.63
2017-11-17T03:31:12.327Z,2.65
2017-11-17T03:32:12.597Z,2.67
2017-11-17T03:33:12.301Z,2.69
2017-11-17T03:34:11.997Z,2.62
2017-11-17T03:35:11.978Z,2.6
2017-11-17T03:36:12.238Z,2.72
2017-11-17T03:37:12.240Z,2.69
2017-11-17T03:38:12.243Z,2.66
2017-11-17T03:39:12.476Z,2.67
2017-11-17T03:40:12.175Z,2.67
2017-11-17T03:41:11.881Z,2.62
2017-11-17T03:42:12.447Z,2.7
2017-11-17T03:43:12.410Z,2.66
2017-11-17T03:44:12.107Z,2.69
2017-11-17T03:45:12.095Z,2.59
2017-11-17T03:46:11.804Z,2.7
2017-11-17T03:47:11.800Z,2.69
2017-11-17T03:48:11.785Z,2.66
2017-11-17T03:49:12.306Z,2.76
2017-11-17T03:50:11.732Z,2.7
2017-11-17T03:51:11.719Z,2.66
2017-11-17T03:52:11.703Z,2.69
2017-11-17T03:53:11.960Z,2.7
2017-11-17T03:54:11.965Z,2.81
2017-11-17T03:55:11.928Z,2.77
2017-11-17T03:56:12.219Z,2.72
2017-11-17T03:57:11.930Z,2.81
2017-11-17T03:58:11.605Z,2.8
2017-11-17T03:59:11.590Z,2.81
2017-11-17T04:00:12.142Z,2.83
2017-11-17T04:01:11.840Z,2.8
2017-11-17T04:02:12.095Z,2.78
2017-11-17T04:03:11.528Z,2.72
2017-11-17T04:04:11.508Z,2.81
2017-11-17T04:05:11.496Z,2.85
2017-11-17T04:06:11.478Z,2.83
2017-11-17T04:07:11.740Z,2.87
2017-11-17T04:08:11.469Z,2.83
2017-11-17T04:09:11.991Z,2.84
2017-11-17T04:10:11.693Z,2.81
2017-11-17T04:11:11.678Z,2.78
2017-11-17T04:12:11.658Z,2.83
2017-11-17T04:13:11.641Z,2.87
2017-11-17T04:14:11.352Z,2.83
2017-11-17T04:15:11.607Z,2.93
2017-11-17T04:16:11.594Z,2.83
2017-11-17T04:17:11.851Z,2.9
2017-11-17T04:18:11.852Z,2.83
2017-11-17T04:19:11.554Z,2.95
2017-11-17T04:20:11.820Z,2.81
2017-11-17T04:21:11.520Z,2.8
2017-11-17T04:22:11.221Z,2.88
2017-11-17T04:23:11.485Z,2.77
2017-11-17T04:24:11.464Z,2.9
2017-11-17T04:25:11.475Z,2.9
2017-11-17T04:26:11.723Z,2.81
2017-11-17T04:27:11.689Z,2.85
2017-11-17T04:28:11.416Z,2.85
2017-11-17T04:29:11.669Z,2.84
2017-11-17T04:30:11.659Z,2.76
2017-11-17T04:31:11.081Z,2.93
2017-11-17T04:32:11.630Z,2.85
2017-11-17T04:33:11.055Z,2.83
2017-11-17T04:34:11.329Z,2.87
2017-11-17T04:35:11.293Z,2.85
2017-11-17T04:36:11.277Z,2.84
2017-11-17T04:37:11.269Z,2.85
2017-11-17T04:38:11.246Z,2.88
2017-11-17T04:39:11.223Z,2.93
2017-11-17T04:40:11.211Z,2.91
2017-11-17T04:41:11.504Z,2.96
2017-11-17T04:42:10.919Z,2.96
2017-11-17T04:43:10.891Z,2.87
2017-11-17T04:44:11.432Z,2.78
2017-11-17T04:45:11.132Z,2.83
2017-11-17T04:46:10.853Z,2.87
2017-11-17T04:47:10.823Z,2.88
2017-11-17T04:48:10.815Z,2.9
2017-11-17T04:49:10.804Z,2.95
2017-11-17T04:50:11.058Z,2.9
2017-11-17T04:51:11.059Z,2.84
2017-11-17T04:52:10.760Z,2.91
2017-11-17T04:53:11.283Z,2.83
2017-11-17T04:54:10.991Z,2.88
2017-11-17T04:55:10.699Z,2.85
2017-11-17T04:56:10.968Z,2.9
2017-11-17T04:57:10.955Z,2.93
2017-11-17T04:58:10.662Z,2.87
2017-11-17T04:59:11.197Z,2.91
2017-11-17T05:00:10.899Z,2.87
2017-11-17T05:01:10.612Z,2.93
2017-11-17T05:02:10.862Z,3.05
2017-11-17T05:03:10.577Z,3.03
2017-11-17T05:04:10.859Z,2.98
2017-11-17T05:05:10.538Z,2.99
2017-11-17T05:06:11.077Z,3.02
2017-11-17T05:07:10.800Z,2.96
2017-11-17T05:08:11.042Z,3.03
2017-11-17T05:09:10.754Z,2.87
2017-11-17T05:10:10.734Z,3.01
2017-11-17T05:11:10.442Z,2.96
2017-11-17T05:12:10.990Z,2.91
2017-11-17T05:13:10.433Z,2.98
2017-11-17T05:14:10.669Z,2.9
2017-11-17T05:15:10.929Z,3.02
2017-11-17T05:16:10.658Z,2.99
2017-11-17T05:17:10.357Z,3.02
2017-11-17T05:18:10.888Z,3.01
2017-11-17T05:19:10.315Z,3.01
2017-11-17T05:20:10.320Z,3.03
2017-11-17T05:21:10.563Z,3.03
2017-11-17T05:22:10.271Z,2.96
2017-11-17T05:23:10.258Z,2.99
2017-11-17T05:24:10.238Z,2.99
2017-11-17T05:25:10.231Z,3.01
2017-11-17T05:26:10.205Z,3.06
2017-11-17T05:27:10.467Z,2.96
2017-11-17T05:28:10.446Z,2.98
2017-11-17T05:29:10.431Z,2.96
2017-11-17T05:30:10.692Z,2.9
2017-11-17T05:31:10.690Z,3.01
2017-11-17T05:32:10.389Z,3.03
2017-11-17T05:33:10.372Z,2.88
2017-11-17T05:34:10.357Z,2.85
2017-11-17T05:35:10.649Z,2.98
2017-11-17T05:36:10.601Z,2.93
2017-11-17T05:37:10.032Z,3.03
2017-11-17T05:38:10.576Z,2.98
2017-11-17T05:39:10.280Z,3.03
2017-11-17T05:40:09.981Z,2.99
2017-11-17T05:41:10.263Z,2.98
2017-11-17T05:42:09.963Z,2.93
2017-11-17T05:43:10.489Z,2.96
2017-11-17T05:44:10.196Z,2.93
2017-11-17T05:45:10.195Z,2.98
2017-11-17T05:46:09.889Z,2.91
2017-11-17T05:47:09.872Z,3.05
2017-11-17T05:48:09.873Z,2.98
2017-11-17T05:49:09.844Z,2.91
2017-11-17T05:50:10.112Z,2.96
2017-11-17T05:51:10.360Z,3.01
2017-11-17T05:52:10.073Z,3.05
2017-11-17T05:53:10.345Z,3.06
2017-11-17T05:54:09.780Z,3.06
2017-11-17T05:55:09.746Z,2.91
2017-11-17T05:56:10.004Z,2.99
2017-11-17T05:57:10.011Z,2.99
2017-11-17T05:58:09.698Z,2.98
2017-11-17T05:59:09.969Z,2.99
2017-11-17T06:00:09.666Z,3.02
2017-11-17T06:01:09.651Z,3.01
2017-11-17T06:02:09.649Z,3.05
2017-11-17T06:03:09.617Z,2.99
2017-11-17T06:04:09.612Z,2.96
2017-11-17T06:05:09.869Z,3.03
2017-11-17T06:06:09.574Z,3.02
2017-11-17T06:07:09.556Z,3.02
2017-11-17T06:08:10.102Z,3.02
2017-11-17T06:09:09.531Z,3.06
2017-11-17T06:10:09.799Z,3.05
2017-11-17T06:11:09.497Z,3.11
2017-11-17T06:12:09.476Z,3.16
2017-11-17T06:13:09.460Z,2.99
2017-11-17T06:14:10.000Z,3.03
2017-11-17T06:15:09.431Z,3.05
2017-11-17T06:16:09.980Z,3.03
2017-11-17T06:17:09.676Z,3.08
2017-11-17T06:18:09.383Z,3.09
2017-11-17T06:19:09.649Z,3.17
2017-11-17T06:20:09.351Z,3.14
2017-11-17T06:21:09.344Z,3.13
2017-11-17T06:22:09.318Z,3.09
2017-11-17T06:23:09.304Z,3.02
2017-11-17T06:24:09.296Z,3.11
2017-11-17T06:25:09.270Z,3.05
2017-11-17T06:26:09.256Z,3.03
2017-11-17T06:27:09.269Z,3.06
2017-11-17T06:28:09.225Z,3.05
2017-11-17T06:29:10.178Z,3.08
2017-11-17T06:30:09.206Z,3.06
2017-11-17T06:31:09.483Z,2.98
2017-11-17T06:32:09.712Z,3.11
2017-11-17T06:33:09.146Z,3.13
2017-11-17T06:34:09.692Z,3.13
2017-11-17T06:35:09.387Z,3.02
2017-11-17T06:36:09.381Z,2.9
2017-11-17T06:37:09.387Z,2.95
2017-11-17T06:38:09.347Z,2.98
2017-11-17T06:39:09.330Z,2.95
2017-11-17T06:40:09.315Z,2.96
2017-11-17T06:41:09.029Z,3.05
2017-11-17T06:42:09.282Z,3.03
2017-11-17T06:43:08.989Z,3.03
2017-11-17T06:44:09.248Z,3.08
2017-11-17T06:45:09.239Z,3.03
2017-11-17T06:46:08.965Z,3.01
2017-11-17T06:47:09.204Z,3.05
2017-11-17T06:48:08.907Z,3.05
2017-11-17T06:49:08.895Z,3.08
2017-11-17T06:50:09.433Z,3.11
2017-11-17T06:51:09.153Z,3.11
2017-11-17T06:52:08.855Z,3.06
2017-11-17T06:53:09.103Z,3.06
2017-11-17T06:54:08.830Z,3.05
2017-11-17T06:55:08.803Z,3.06
2017-11-17T06:56:09.063Z,3.06
2017-11-17T06:57:09.320Z,3.17
2017-11-17T06:58:09.031Z,3.05
2017-11-17T06:59:08.736Z,3.06
2017-11-17T07:00:09.018Z,3.09
2017-11-17T07:01:08.701Z,3.06
2017-11-17T07:02:08.962Z,3.13
2017-11-17T07:03:08.688Z,3.08
2017-11-17T07:04:08.936Z,3.11
2017-11-17T07:05:08.663Z,3.09
2017-11-17T07:06:08.898Z,3.13
2017-11-17T07:07:09.164Z,3.08
2017-11-17T07:08:09.145Z,3.09
2017-11-17T07:09:08.854Z,3.08
2017-11-17T07:10:08.560Z,3.08
2017-11-17T07:11:08.547Z,3.13
2017-11-17T07:12:08.810Z,3.2
2017-11-17T07:13:08.518Z,3.13
2017-11-17T07:14:08.778Z,3.14
2017-11-17T07:15:08.787Z,3.11
2017-11-17T07:16:08.745Z,3.13
2017-11-17T07:17:08.734Z,3.17
2017-11-17T07:18:08.439Z,3.21
2017-11-17T07:19:08.709Z,3.14
2017-11-17T07:20:08.407Z,3.09
2017-11-17T07:21:08.955Z,3.17
2017-11-17T07:22:08.373Z,3.13
2017-11-17T07:23:08.368Z,3.13
2017-11-17T07:24:08.646Z,3.19
2017-11-17T07:25:08.624Z,3.14
2017-11-17T07:26:08.314Z,3.2
2017-11-17T07:27:08.568Z,3.11
2017-11-17T07:28:08.596Z,3.14
2017-11-17T07:29:08.542Z,3.17
2017-11-17T07:30:08.252Z,3.2
2017-11-17T07:31:08.244Z,3.17
2017-11-17T07:32:08.215Z,3.09
2017-11-17T07:33:08.499Z,3.17
2017-11-17T07:34:08.199Z,3.14
2017-11-17T07:35:08.724Z,3.17
2017-11-17T07:36:08.434Z,3.14
2017-11-17T07:37:08.417Z,3.14
2017-11-17T07:38:08.393Z,3.14
2017-11-17T07:39:08.688Z,3.09
2017-11-17T07:40:08.089Z,3.17
2017-11-17T07:41:08.361Z,3.17
2017-11-17T07:42:08.339Z,3.14
2017-11-17T07:43:08.325Z,3.16
2017-11-17T07:44:08.302Z,3.14
2017-11-17T07:45:08.011Z,3.19
2017-11-17T07:46:07.999Z,3.03
2017-11-17T07:47:07.999Z,3.09
2017-11-17T07:48:07.965Z,3.09
2017-11-17T07:49:07.947Z,3.11
2017-11-17T07:50:07.932Z,3.17
2017-11-17T07:51:08.198Z,3.11
2017-11-17T07:52:08.182Z,3.09
2017-11-17T07:53:07.891Z,3.06
2017-11-17T07:54:08.152Z,3.09
2017-11-17T07:55:08.133Z,3.16
2017-11-17T07:56:08.119Z,3.19
2017-11-17T07:57:08.374Z,3.14
2017-11-17T07:58:08.084Z,3.08
2017-11-17T07:59:08.377Z,3.11
2017-11-17T08:00:08.334Z,3.14
2017-11-17T08:01:08.043Z,3.09
2017-11-17T08:02:08.044Z,3.16
2017-11-17T08:03:08.278Z,3.14
2017-11-17T08:04:07.726Z,3.19
2017-11-17T08:05:07.996Z,3.13
2017-11-17T08:06:07.679Z,3.08
2017-11-17T08:07:08.228Z,3.11
2017-11-17T08:08:08.199Z,3.13
2017-11-17T08:09:07.923Z,3.16
2017-11-17T08:10:07.621Z,3.06
2017-11-17T08:11:07.886Z,3.06
2017-11-17T08:12:07.590Z,3.2
2017-11-17T08:13:07.857Z,3.11
2017-11-17T08:14:07.846Z,3.14
2017-11-17T08:15:07.816Z,3.05
2017-11-17T08:16:07.526Z,3.16
2017-11-17T08:17:07.804Z,3.14
2017-11-17T08:18:07.770Z,3.13
2017-11-17T08:19:07.760Z,3.09
2017-11-17T08:20:08.028Z,3.19
2017-11-17T08:21:07.730Z,3.2
2017-11-17T08:22:07.427Z,3.24
2017-11-17T08:23:07.704Z,3.27
2017-11-17T08:24:07.955Z,3.37
2017-11-17T08:25:07.662Z,3.43
2017-11-17T08:26:07.371Z,3.4
2017-11-17T08:27:07.358Z,3.45
2017-11-17T08:28:07.334Z,3.49
2017-11-17T08:29:07.604Z,3.43
2017-11-17T08:30:07.610Z,3.53
2017-11-17T08:31:07.316Z,3.53
2017-11-17T08:32:07.271Z,3.48
2017-11-17T08:33:07.532Z,3.57
2017-11-17T08:34:07.252Z,3.56
2017-11-17T08:35:07.521Z,3.48
2017-11-17T08:36:07.210Z,3.57
2017-11-17T08:37:07.468Z,3.56
2017-11-17T08:38:07.181Z,3.6
2017-11-17T08:39:07.164Z,3.6
2017-11-17T08:40:07.146Z,3.71
2017-11-17T08:41:07.423Z,3.69
2017-11-17T08:42:07.395Z,3.64
2017-11-17T08:43:07.103Z,3.78
2017-11-17T08:44:07.091Z,3.72
2017-11-17T08:45:07.352Z,3.79
2017-11-17T08:46:07.057Z,3.84
2017-11-17T08:47:07.328Z,3.82
2017-11-17T08:48:07.306Z,3.86
2017-11-17T08:49:07.011Z,3.89
2017-11-17T08:50:06.997Z,3.84
2017-11-17T08:51:07.255Z,3.85
2017-11-17T08:52:07.248Z,3.79
2017-11-17T08:53:07.239Z,3.78
2017-11-17T08:54:07.511Z,3.79
2017-11-17T08:55:07.209Z,3.9
2017-11-17T08:56:07.466Z,3.86
2017-11-17T08:57:06.892Z,3.81
2017-11-17T08:58:06.893Z,3.84
2017-11-17T08:59:06.856Z,3.85
2017-11-17T09:00:06.842Z,3.89
2017-11-17T09:01:07.103Z,3.84
2017-11-17T09:02:07.385Z,3.86
2017-11-17T09:03:06.815Z,3.85
2017-11-17T09:04:06.789Z,3.82
2017-11-17T09:05:07.051Z,3.89
2017-11-17T09:06:07.033Z,3.79
2017-11-17T09:07:07.305Z,3.89
2017-11-17T09:08:07.280Z,3.86
2017-11-17T09:09:06.705Z,3.86
2017-11-17T09:10:06.962Z,3.78
2017-11-17T09:11:06.675Z,3.89
2017-11-17T09:12:06.662Z,3.84
2017-11-17T09:13:06.643Z,3.85
2017-11-17T09:14:06.941Z,3.97
2017-11-17T09:15:06.627Z,3.93
2017-11-17T09:16:06.871Z,4.03
2017-11-17T09:17:06.582Z,4.03
2017-11-17T09:18:06.845Z,4.08
2017-11-17T09:19:06.875Z,4.1
2017-11-17T09:20:06.552Z,4.18
2017-11-17T09:21:06.521Z,4.22
2017-11-17T09:22:06.809Z,4.17
2017-11-17T09:23:06.769Z,4.28
2017-11-17T09:24:06.477Z,4.17
2017-11-17T09:25:06.740Z,4.2
2017-11-17T09:26:06.725Z,4.3
2017-11-17T09:27:06.451Z,4.28
2017-11-17T09:28:06.421Z,4.26
2017-11-17T09:29:06.699Z,4.32
2017-11-17T09:30:06.387Z,4.26
2017-11-17T09:31:06.371Z,4.3
2017-11-17T09:32:06.975Z,4.35
2017-11-17T09:33:06.625Z,4.33
2017-11-17T09:34:06.605Z,4.3
2017-11-17T09:35:06.873Z,4.36
2017-11-17T09:36:06.851Z,4.38
2017-11-17T09:37:06.559Z,4.32
2017-11-17T09:38:06.546Z,4.38
2017-11-17T09:39:06.254Z,4.44
2017-11-17T09:40:06.788Z,4.42
2017-11-17T09:41:06.501Z,4.42
2017-11-17T09:42:06.488Z,4.38
2017-11-17T09:43:06.763Z,4.38
2017-11-17T09:44:06.453Z,4.46
2017-11-17T09:45:06.451Z,4.32
2017-11-17T09:46:06.704Z,4.38
2017-11-17T09:47:06.411Z,4.4
2017-11-17T09:48:06.121Z,4.38
2017-11-17T09:49:06.386Z,4.36
2017-11-17T09:50:06.379Z,4.4
2017-11-17T09:51:06.080Z,4.47
2017-11-17T09:52:06.059Z,4.42
2017-11-17T09:53:06.606Z,4.39
2017-11-17T09:54:06.035Z,4.42
2017-11-17T09:55:06.292Z,4.47
2017-11-17T09:56:06.557Z,4.46
2017-11-17T09:57:06.263Z,4.48
2017-11-17T09:58:06.267Z,4.46
2017-11-17T09:59:06.253Z,4.47
2017-11-17T10:00:05.943Z,4.47
2017-11-17T10:01:06.208Z,4.46
2017-11-17T10:02:06.189Z,4.42
2017-11-17T10:03:05.896Z,4.44
2017-11-17T10:04:05.883Z,4.48
2017-11-17T10:05:06.163Z,4.51
2017-11-17T10:06:05.863Z,4.53
2017-11-17T10:07:05.836Z,4.51
2017-11-17T10:08:06.096Z,4.47
2017-11-17T10:09:06.086Z,4.54
2017-11-17T10:10:06.348Z,4.58
2017-11-17T10:11:06.062Z,4.64
2017-11-17T10:12:05.775Z,4.69
2017-11-17T10:13:05.757Z,4.69
2017-11-17T10:14:05.732Z,4.64
2017-11-17T10:15:05.720Z,4.66
2017-11-17T10:16:05.993Z,4.65
2017-11-17T10:17:05.695Z,4.65
2017-11-17T10:18:05.675Z,4.68
2017-11-17T10:19:05.663Z,4.64
2017-11-17T10:20:05.925Z,4.65
2017-11-17T10:21:05.634Z,4.64
2017-11-17T10:22:05.620Z,4.58
2017-11-17T10:23:05.606Z,4.65
2017-11-17T10:24:05.589Z,4.6
2017-11-17T10:25:05.857Z,4.68
2017-11-17T10:26:05.860Z,4.75
2017-11-17T10:27:05.824Z,4.84
2017-11-17T10:28:05.808Z,4.88
2017-11-17T10:29:05.515Z,4.91
2017-11-17T10:30:05.803Z,5.02
2017-11-17T10:31:05.770Z,5.05
2017-11-17T10:32:05.472Z,5.21
2017-11-17T10:33:05.740Z,5.23
2017-11-17T10:34:05.445Z,5.21
2017-11-17T10:35:05.711Z,5.3
2017-11-17T10:36:05.710Z,5.26
2017-11-17T10:37:05.403Z,5.27
2017-11-17T10:38:05.665Z,5.37
2017-11-17T10:39:05.663Z,5.39
2017-11-17T10:40:05.641Z,5.45
2017-11-17T10:41:05.390Z,5.37
2017-11-17T10:42:05.611Z,5.42
2017-11-17T10:43:05.312Z,5.39
2017-11-17T10:44:13.360Z,5.42
2017-11-17T10:45:05.564Z,5.44
2017-11-17T10:46:05.826Z,5.48
2017-11-17T10:47:05.255Z,5.48
2017-11-17T10:48:05.243Z,5.44
2017-11-17T10:49:05.786Z,5.39
2017-11-17T10:50:05.770Z,5.37
2017-11-17T10:51:05.533Z,5.31
2017-11-17T10:52:05.750Z,5.27
2017-11-17T10:53:05.486Z,5.13
2017-11-17T10:54:05.157Z,5.1
2017-11-17T10:55:05.703Z,5.16
2017-11-17T10:56:05.696Z,5.18
2017-11-17T10:57:05.396Z,5.18
2017-11-17T10:58:05.378Z,5.18
2017-11-17T10:59:05.654Z,5.16
2017-11-17T11:00:05.357Z,5.23
2017-11-17T11:01:05.080Z,5.21
2017-11-17T11:02:05.325Z,5.12
2017-11-17T11:03:05.603Z,5.15
2017-11-17T11:04:05.300Z,5.12
2017-11-17T11:05:05.284Z,5.05
2017-11-17T11:06:05.270Z,5.09
2017-11-17T11:07:05.252Z,5.06
2017-11-17T11:08:05.244Z,5.12
2017-11-17T11:09:04.947Z,5.12
2017-11-17T11:10:05.506Z,5.06
2017-11-17T11:11:05.488Z,5.03
2017-11-17T11:12:05.180Z,4.98
2017-11-17T11:13:04.889Z,5
2017-11-17T11:14:05.150Z,5.02
2017-11-17T11:15:05.134Z,4.92
2017-11-17T11:16:04.864Z,5.03
2017-11-17T11:17:04.832Z,5
2017-11-17T11:18:04.816Z,4.97
2017-11-17T11:19:05.087Z,4.94
2017-11-17T11:20:05.086Z,4.98
2017-11-17T11:21:05.057Z,4.94
2017-11-17T11:22:04.761Z,4.94
2017-11-17T11:23:05.023Z,4.92
2017-11-17T11:24:04.733Z,4.97
2017-11-17T11:25:04.998Z,5
2017-11-17T11:26:04.709Z,4.98
2017-11-17T11:27:05.259Z,4.97
2017-11-17T11:28:04.673Z,4.9
2017-11-17T11:29:05.213Z,4.85
2017-11-17T11:30:05.224Z,4.76
2017-11-17T11:31:05.193Z,4.71
2017-11-17T11:32:05.168Z,4.78
2017-11-17T11:33:04.605Z,4.66
2017-11-17T11:34:04.596Z,4.72
2017-11-17T11:35:04.850Z,4.68
2017-11-17T11:36:05.110Z,4.66
2017-11-17T11:37:05.110Z,4.71
2017-11-17T11:38:04.853Z,4.68
2017-11-17T11:39:05.099Z,4.69
2017-11-17T11:40:04.501Z,4.64
2017-11-17T11:41:04.488Z,4.65
2017-11-17T11:42:05.039Z,4.66
2017-11-17T11:43:04.745Z,4.74
2017-11-17T11:44:04.717Z,4.76
2017-11-17T11:45:04.426Z,4.79
2017-11-17T11:46:04.412Z,4.84
2017-11-17T11:47:04.679Z,4.87
2017-11-17T11:48:04.948Z,4.87
2017-11-17T11:49:04.646Z,4.88
2017-11-17T11:50:04.649Z,5
2017-11-17T11:51:04.624Z,4.97
2017-11-17T11:52:04.326Z,4.91
2017-11-17T11:53:04.611Z,4.94
2017-11-17T11:54:04.298Z,5
2017-11-17T11:55:04.579Z,4.9
2017-11-17T11:56:04.571Z,4.9
2017-11-17T11:57:04.252Z,4.92
2017-11-17T11:58:04.527Z,4.91
2017-11-17T11:59:04.224Z,4.94
2017-11-17T12:00:04.486Z,4.92
2017-11-17T12:01:04.473Z,4.98
2017-11-17T12:02:04.186Z,5.03
2017-11-17T12:03:04.168Z,5.03
2017-11-17T12:04:04.437Z,5.06
2017-11-17T12:05:04.142Z,5.12
2017-11-17T12:06:04.403Z,5.06
2017-11-17T12:07:04.108Z,5.1
2017-11-17T12:08:04.381Z,5.08
2017-11-17T12:09:04.098Z,5.08
2017-11-17T12:10:04.344Z,5.06
2017-11-17T12:11:04.055Z,5.12
2017-11-17T12:12:04.313Z,5.02
2017-11-17T12:13:04.020Z,5.08
2017-11-17T12:14:04.284Z,5.02
2017-11-17T12:15:03.993Z,4.98
2017-11-17T12:16:04.264Z,5.02
2017-11-17T12:17:04.248Z,5.06
2017-11-17T12:18:04.229Z,5
2017-11-17T12:19:03.950Z,4.98
2017-11-17T12:20:03.926Z,4.9
2017-11-17T12:21:04.472Z,4.92
2017-11-17T12:22:03.908Z,4.95
2017-11-17T12:23:04.166Z,5.05
2017-11-17T12:24:04.148Z,5
2017-11-17T12:25:04.129Z,5.08
2017-11-17T12:26:03.856Z,5.02
2017-11-17T12:27:03.822Z,5.05
2017-11-17T12:28:04.086Z,5.06
2017-11-17T12:29:04.075Z,5
2017-11-17T12:30:04.346Z,4.98
2017-11-17T12:31:03.766Z,5
2017-11-17T12:32:04.030Z,4.97
2017-11-17T12:33:03.736Z,5.05
2017-11-17T12:34:03.997Z,5.06
2017-11-17T12:35:03.986Z,5.09
2017-11-17T12:36:03.975Z,5.05
2017-11-17T12:37:03.679Z,5.08
2017-11-17T12:38:03.667Z,5.06
2017-11-17T12:39:03.962Z,5.13
2017-11-17T12:40:04.188Z,5.09
2017-11-17T12:41:04.189Z,5.18
2017-11-17T12:42:03.606Z,5.1
2017-11-17T12:43:03.873Z,5.15
2017-11-17T12:44:03.858Z,5.18
2017-11-17T12:45:03.840Z,5.18
2017-11-17T12:46:03.837Z,5.18
2017-11-17T12:47:03.813Z,5.15
2017-11-17T12:48:04.084Z,5.18
2017-11-17T12:49:03.509Z,5.16
2017-11-17T12:50:04.049Z,5.24
2017-11-17T12:51:03.475Z,5.08
2017-11-17T12:52:04.019Z,5.1
2017-11-17T12:53:03.733Z,5.2
2017-11-17T12:54:03.439Z,5.18
2017-11-17T12:55:03.696Z,5.12
2017-11-17T12:56:03.686Z,5.27
2017-11-17T12:57:03.395Z,5.26
2017-11-17T12:58:03.662Z,5.26
2017-11-17T12:59:03.650Z,5.21
2017-11-17T13:00:03.905Z,5.26
2017-11-17T13:01:03.339Z,5.23
2017-11-17T13:02:03.320Z,5.26
2017-11-17T13:03:03.866Z,5.18
2017-11-17T13:04:03.590Z,5.33
2017-11-17T13:05:03.567Z,5.15
2017-11-17T13:06:03.271Z,5.34
2017-11-17T13:07:03.250Z,5.24
2017-11-17T13:08:03.236Z,5.24
2017-11-17T13:09:03.782Z,5.26
2017-11-17T13:10:03.215Z,5.3
2017-11-17T13:11:03.196Z,5.28
2017-11-17T13:12:06.508Z,5.24
2017-11-17T13:13:03.449Z,5.27
2017-11-17T13:14:03.643Z,5.2
2017-11-17T13:15:03.420Z,5.2
2017-11-17T13:16:03.400Z,5.21
2017-11-17T13:17:03.112Z,5.2
2017-11-17T13:18:03.386Z,5.15
2017-11-17T13:19:03.086Z,5.16
2017-11-17T13:20:03.090Z,5.18
2017-11-17T13:21:03.053Z,5.1